createdAt,value
2023-06-10T00:00:55.121Z,32.48
2023-06-10T00:01:55.150Z,32.46
2023-06-10T00:02:55.232Z,32.45
2023-06-10T00:03:55.345Z,32.44
2023-06-10T00:04:55.325Z,32.46
2023-06-10T00:05:55.272Z,32.48
2023-06-10T00:06:55.279Z,32.53
2023-06-10T00:07:55.299Z,32.46
2023-06-10T00:08:55.300Z,32.44
2023-06-10T00:09:55.312Z,32.52
2023-06-10T00:10:55.318Z,32.51
2023-06-10T00:11:55.333Z,32.51
2023-06-10T00:12:55.332Z,32.56
2023-06-10T00:13:55.338Z,32.55
2023-06-10T00:14:55.334Z,32.51
2023-06-10T00:15:55.390Z,32.48
2023-06-10T00:16:55.334Z,32.52
2023-06-10T00:17:55.383Z,32.53
2023-06-10T00:18:55.347Z,32.56
2023-06-10T00:19:55.342Z,32.51
2023-06-10T00:20:55.365Z,32.53
2023-06-10T00:21:55.356Z,32.55
2023-06-10T00:22:55.360Z,32.53
2023-06-10T00:23:55.414Z,32.56
2023-06-10T00:24:55.403Z,32.55
2023-06-10T00:25:55.412Z,32.52
2023-06-10T00:26:55.402Z,32.53
2023-06-10T00:27:55.421Z,32.51
2023-06-10T00:28:55.415Z,32.52
2023-06-10T00:29:55.409Z,32.57
2023-06-10T00:30:55.422Z,32.55
2023-06-10T00:31:55.456Z,32.53
2023-06-10T00:32:55.494Z,32.58
2023-06-10T00:33:55.436Z,32.56
2023-06-10T00:34:55.443Z,32.59
2023-06-10T00:35:55.473Z,32.53
2023-06-10T00:36:55.485Z,32.63
2023-06-10T00:37:55.537Z,32.55
2023-06-10T00:38:55.539Z,32.59
2023-06-10T00:39:55.554Z,32.59
2023-06-10T00:40:55.581Z,32.55
2023-06-10T00:41:55.614Z,32.59
2023-06-10T00:42:55.642Z,32.63
2023-06-10T00:43:55.656Z,32.57
2023-06-10T00:44:55.689Z,32.59
2023-06-10T00:45:55.776Z,32.60
2023-06-10T00:46:55.731Z,32.60
2023-06-10T00:47:55.833Z,32.62
2023-06-10T00:48:55.787Z,32.65
2023-06-10T00:49:55.825Z,32.67
2023-06-10T00:50:55.848Z,32.66
2023-06-10T00:51:55.869Z,32.69
2023-06-10T00:52:56.067Z,32.66
2023-06-10T00:53:55.925Z,32.64
2023-06-10T00:54:55.949Z,32.64
2023-06-10T00:55:55.983Z,32.66
2023-06-10T00:56:56.002Z,32.68
2023-06-10T00:57:56.037Z,32.70
2023-06-10T00:58:56.052Z,32.63
2023-06-10T00:59:56.095Z,32.70
2023-06-10T01:00:56.137Z,32.66
2023-06-10T01:01:56.142Z,32.66
2023-06-10T01:02:56.307Z,32.65
2023-06-10T01:03:56.214Z,32.66
2023-06-10T01:04:56.253Z,32.65
2023-06-10T01:05:56.260Z,32.70
2023-06-10T01:06:56.307Z,32.68
2023-06-10T01:07:56.334Z,32.67
2023-06-10T01:08:56.339Z,32.71
2023-06-10T01:09:56.357Z,32.71
2023-06-10T01:10:56.356Z,32.74
2023-06-10T01:11:56.357Z,32.70
2023-06-10T01:12:56.364Z,32.70
2023-06-10T01:13:56.351Z,32.73
2023-06-10T01:14:56.388Z,32.67
2023-06-10T01:15:56.381Z,32.67
2023-06-10T01:16:56.419Z,32.73
2023-06-10T01:17:56.440Z,32.70
2023-06-10T01:18:56.383Z,32.68
2023-06-10T01:19:56.424Z,32.71
2023-06-10T01:20:56.403Z,32.74
2023-06-10T01:21:56.423Z,32.71
2023-06-10T01:22:56.430Z,32.75
2023-06-10T01:23:56.467Z,32.72
2023-06-10T01:24:56.443Z,32.72
2023-06-10T01:25:56.448Z,32.70
2023-06-10T01:26:56.454Z,32.70
2023-06-10T01:27:56.474Z,32.76
2023-06-10T01:28:56.466Z,32.80
2023-06-10T01:29:56.483Z,32.77
2023-06-10T01:30:56.500Z,32.77
2023-06-10T01:31:56.494Z,32.74
2023-06-10T01:32:56.549Z,32.75
2023-06-10T01:33:56.516Z,32.75
2023-06-10T01:34:56.537Z,32.77
2023-06-10T01:35:56.543Z,32.75
2023-06-10T01:36:56.554Z,32.79
2023-06-10T01:37:56.566Z,32.78
2023-06-10T01:38:56.574Z,32.83
2023-06-10T01:39:56.574Z,32.78
2023-06-10T01:40:56.581Z,32.83
2023-06-10T01:41:56.595Z,32.82
2023-06-10T01:42:56.605Z,32.84
2023-06-10T01:43:56.615Z,32.82
2023-06-10T01:44:56.620Z,32.78
2023-06-10T01:45:56.638Z,32.78
2023-06-10T01:46:56.850Z,32.76
2023-06-10T01:47:56.706Z,32.78
2023-06-10T01:48:56.681Z,32.80
2023-06-10T01:49:56.669Z,32.78
2023-06-10T01:50:56.674Z,32.82
2023-06-10T01:51:56.711Z,32.80
2023-06-10T01:52:56.698Z,32.79
2023-06-10T01:53:56.692Z,32.85
2023-06-10T01:54:56.715Z,32.83
2023-06-10T01:55:56.718Z,32.83
2023-06-10T01:56:56.733Z,32.83
2023-06-10T01:57:56.758Z,32.80
2023-06-10T01:58:56.747Z,32.85
2023-06-10T01:59:56.769Z,32.83
2023-06-10T02:00:56.851Z,32.80
2023-06-10T02:01:56.822Z,32.82
2023-06-10T02:02:56.839Z,32.80
2023-06-10T02:03:56.848Z,32.79
2023-06-10T02:04:56.820Z,32.86
2023-06-10T02:05:56.823Z,32.83
2023-06-10T02:06:56.817Z,32.83
2023-06-10T02:07:56.821Z,32.83
2023-06-10T02:08:56.831Z,32.83
2023-06-10T02:09:56.834Z,32.85
2023-06-10T02:10:56.827Z,32.82
2023-06-10T02:11:56.847Z,32.86
2023-06-10T02:12:56.849Z,32.86
2023-06-10T02:13:56.838Z,32.86
2023-06-10T02:14:56.865Z,32.86
2023-06-10T02:15:56.875Z,32.89
2023-06-10T02:16:56.960Z,32.89
2023-06-10T02:17:56.969Z,32.82
2023-06-10T02:18:56.936Z,32.82
2023-06-10T02:19:56.969Z,32.87
2023-06-10T02:20:57.016Z,32.93
2023-06-10T02:21:57.052Z,32.86
2023-06-10T02:22:57.092Z,32.90
2023-06-10T02:23:57.160Z,32.90
2023-06-10T02:24:57.142Z,32.87
2023-06-10T02:25:57.179Z,32.83
2023-06-10T02:26:57.194Z,32.91
2023-06-10T02:27:57.226Z,32.90
2023-06-10T02:28:57.266Z,32.91
2023-06-10T02:29:57.272Z,32.87
2023-06-10T02:30:57.279Z,32.94
2023-06-10T02:31:57.343Z,32.93
2023-06-10T02:32:57.409Z,32.89
2023-06-10T02:33:57.327Z,32.89
2023-06-10T02:34:57.342Z,32.97
2023-06-10T02:35:57.345Z,32.87
2023-06-10T02:36:57.350Z,32.90
2023-06-10T02:37:57.363Z,32.89
2023-06-10T02:38:57.370Z,32.89
2023-06-10T02:39:57.391Z,32.91
2023-06-10T02:40:57.388Z,32.94
2023-06-10T02:41:57.417Z,32.94
2023-06-10T02:42:57.423Z,32.92
2023-06-10T02:43:57.434Z,32.95
2023-06-10T02:44:57.437Z,32.91
2023-06-10T02:45:57.542Z,32.89
2023-06-10T02:46:57.478Z,32.91
2023-06-10T02:47:57.532Z,32.90
2023-06-10T02:48:57.507Z,32.90
2023-06-10T02:49:57.502Z,32.92
2023-06-10T02:50:57.526Z,32.91
2023-06-10T02:51:57.523Z,32.84
2023-06-10T02:52:57.545Z,32.50
2023-06-10T02:53:57.531Z,32.14
2023-06-10T02:54:57.559Z,32.07
2023-06-10T02:55:57.562Z,32.08
2023-06-10T02:56:57.560Z,32.04
2023-06-10T02:57:57.594Z,32.10
2023-06-10T02:58:57.600Z,32.09
2023-06-10T02:59:57.617Z,32.11
2023-06-10T03:00:57.651Z,32.15
2023-06-10T03:01:57.718Z,32.09
2023-06-10T03:02:57.795Z,32.19
2023-06-10T03:03:57.838Z,32.16
2023-06-10T03:04:57.815Z,32.16
2023-06-10T03:05:57.961Z,32.20
2023-06-10T03:06:58.006Z,32.24
2023-06-10T03:07:58.078Z,32.23
2023-06-10T03:08:58.197Z,32.26
2023-06-10T03:09:58.215Z,32.29
2023-06-10T03:10:58.296Z,32.31
2023-06-10T03:11:58.377Z,32.29
2023-06-10T03:12:58.473Z,32.35
2023-06-10T03:13:58.504Z,32.36
2023-06-10T03:14:58.623Z,32.40
2023-06-10T03:15:58.699Z,32.42
2023-06-10T03:16:58.771Z,32.45
2023-06-10T03:17:58.863Z,32.45
2023-06-10T03:18:58.884Z,32.39
2023-06-10T03:19:58.884Z,32.46
2023-06-10T03:20:58.906Z,32.46
2023-06-10T03:21:58.919Z,32.44
2023-06-10T03:22:58.954Z,32.49
2023-06-10T03:23:59.032Z,32.52
2023-06-10T03:24:59.006Z,32.53
2023-06-10T03:25:59.044Z,32.53
2023-06-10T03:26:59.089Z,32.53
2023-06-10T03:27:59.115Z,32.56
2023-06-10T03:28:59.139Z,32.56
2023-06-10T03:29:59.174Z,32.58
2023-06-10T03:30:59.209Z,32.58
2023-06-10T03:31:59.310Z,32.57
2023-06-10T03:32:59.290Z,32.62
2023-06-10T03:33:59.322Z,32.63
2023-06-10T03:34:59.345Z,32.57
2023-06-10T03:35:59.342Z,32.59
2023-06-10T03:36:59.452Z,32.62
2023-06-10T03:37:59.420Z,32.63
2023-06-10T03:38:59.436Z,32.63
2023-06-10T03:39:59.463Z,32.66
2023-06-10T03:40:59.503Z,32.69
2023-06-10T03:41:59.522Z,32.70
2023-06-10T03:42:59.568Z,32.62
2023-06-10T03:43:59.598Z,32.61
2023-06-10T03:44:59.618Z,32.62
2023-06-10T03:45:59.723Z,32.68
2023-06-10T03:46:59.683Z,32.67
2023-06-10T03:47:59.718Z,32.64
2023-06-10T03:48:59.733Z,32.65
2023-06-10T03:49:59.747Z,32.73
2023-06-10T03:50:59.783Z,32.70
2023-06-10T03:51:59.814Z,32.72
2023-06-10T03:52:59.853Z,32.72
2023-06-10T03:53:59.872Z,32.76
2023-06-10T03:54:59.912Z,32.73
2023-06-10T03:55:59.931Z,32.79
2023-06-10T03:56:59.949Z,32.74
2023-06-10T03:57:59.985Z,32.83
2023-06-10T03:59:00.032Z,32.79
2023-06-10T04:00:00.054Z,32.80
2023-06-10T04:01:00.091Z,32.87
2023-06-10T04:02:00.250Z,32.84
2023-06-10T04:03:00.185Z,32.88
2023-06-10T04:04:00.202Z,32.85
2023-06-10T04:05:00.202Z,32.82
2023-06-10T04:06:00.250Z,32.88
2023-06-10T04:07:00.253Z,32.88
2023-06-10T04:08:00.287Z,32.85
2023-06-10T04:09:00.335Z,32.86
2023-06-10T04:10:00.406Z,32.84
2023-06-10T04:11:00.485Z,32.89
2023-06-10T04:12:00.536Z,32.89
2023-06-10T04:13:00.614Z,32.95
2023-06-10T04:14:00.687Z,32.90
2023-06-10T04:15:00.753Z,32.90
2023-06-10T04:16:00.820Z,32.96
2023-06-10T04:17:00.940Z,32.96
2023-06-10T04:18:01.037Z,32.97
2023-06-10T04:19:01.031Z,32.97
2023-06-10T04:20:01.118Z,33.03
2023-06-10T04:21:01.191Z,33.01
2023-06-10T04:22:01.241Z,33.04
2023-06-10T04:23:01.320Z,33.06
2023-06-10T04:24:01.411Z,33.05
2023-06-10T04:25:01.467Z,33.12
2023-06-10T04:26:01.495Z,33.09
2023-06-10T04:27:01.541Z,33.08
2023-06-10T04:28:01.561Z,33.12
2023-06-10T04:29:01.602Z,33.13
2023-06-10T04:30:01.628Z,33.13
2023-06-10T04:31:01.677Z,33.12
2023-06-10T04:32:01.725Z,33.13
2023-06-10T04:33:01.783Z,33.12
2023-06-10T04:34:01.756Z,33.16
2023-06-10T04:35:01.800Z,33.16
2023-06-10T04:36:01.828Z,33.15
2023-06-10T04:37:01.856Z,33.15
2023-06-10T04:38:01.893Z,33.23
2023-06-10T04:39:01.917Z,33.22
2023-06-10T04:40:01.941Z,33.24
2023-06-10T04:41:01.977Z,33.26
2023-06-10T04:42:02.009Z,33.29
2023-06-10T04:43:02.088Z,33.27
2023-06-10T04:44:02.148Z,33.26
2023-06-10T04:45:02.215Z,33.32
2023-06-10T04:46:02.286Z,33.34
2023-06-10T04:47:02.418Z,33.33
2023-06-10T04:48:02.464Z,33.37
2023-06-10T04:49:02.515Z,33.45
2023-06-10T04:50:02.578Z,33.43
2023-06-10T04:51:02.660Z,33.45
2023-06-10T04:52:02.743Z,33.45
2023-06-10T04:53:02.777Z,33.45
2023-06-10T04:54:02.802Z,33.47
2023-06-10T04:55:02.820Z,33.49
2023-06-10T04:56:02.857Z,33.52
2023-06-10T04:57:02.895Z,33.58
2023-06-10T04:58:02.937Z,33.55
2023-06-10T04:59:03.007Z,33.56
2023-06-10T05:00:02.995Z,33.62
2023-06-10T05:01:03.094Z,33.62
2023-06-10T05:02:03.152Z,33.62
2023-06-10T05:03:03.244Z,33.59
2023-06-10T05:04:03.220Z,33.69
2023-06-10T05:05:03.152Z,33.66
2023-06-10T05:06:03.188Z,33.74
2023-06-10T05:07:03.228Z,33.75
2023-06-10T05:08:04.920Z,33.75
2023-06-10T05:09:03.308Z,33.75
2023-06-10T05:10:03.344Z,33.82
2023-06-10T05:11:03.362Z,33.82
2023-06-10T05:12:03.411Z,33.84
2023-06-10T05:13:03.437Z,33.88
2023-06-10T05:14:03.477Z,33.84
2023-06-10T05:15:03.565Z,33.85
2023-06-10T05:16:03.556Z,33.91
2023-06-10T05:17:03.593Z,33.91
2023-06-10T05:18:03.751Z,34.00
2023-06-10T05:19:06.303Z,34.05
2023-06-10T05:20:03.684Z,33.97
2023-06-10T05:21:03.720Z,34.01
2023-06-10T05:22:03.765Z,34.03
2023-06-10T05:23:03.789Z,34.06
2023-06-10T05:24:03.885Z,34.05
2023-06-10T05:25:03.843Z,34.11
2023-06-10T05:26:03.858Z,34.13
2023-06-10T05:27:03.902Z,34.11
2023-06-10T05:28:03.944Z,34.14
2023-06-10T05:29:03.966Z,34.17
2023-06-10T05:30:03.989Z,34.20
2023-06-10T05:31:04.026Z,34.15
2023-06-10T05:32:04.221Z,34.18
2023-06-10T05:33:04.099Z,34.23
2023-06-10T05:34:04.134Z,34.20
2023-06-10T05:35:04.128Z,34.26
2023-06-10T05:36:04.156Z,34.25
2023-06-10T05:37:04.182Z,34.30
2023-06-10T05:38:04.426Z,34.30
2023-06-10T05:39:04.258Z,34.36
2023-06-10T05:40:04.298Z,34.36
2023-06-10T05:41:04.313Z,34.36
2023-06-10T05:42:04.337Z,34.38
2023-06-10T05:43:04.423Z,34.40
2023-06-10T05:44:04.399Z,34.46
2023-06-10T05:45:04.433Z,34.39
2023-06-10T05:46:04.524Z,34.44
2023-06-10T05:47:04.543Z,34.46
2023-06-10T05:48:04.649Z,34.45
2023-06-10T05:49:04.667Z,34.49
2023-06-10T05:50:04.709Z,34.49
2023-06-10T05:51:04.764Z,34.57
2023-06-10T05:52:04.846Z,34.55
2023-06-10T05:53:04.923Z,34.52
2023-06-10T05:54:05.022Z,34.64
2023-06-10T05:55:05.037Z,34.60
2023-06-10T05:56:05.064Z,34.65
2023-06-10T05:57:05.091Z,34.69
2023-06-10T05:58:05.126Z,34.70
2023-06-10T05:59:05.166Z,34.81
2023-06-10T06:00:05.189Z,34.82
2023-06-10T06:01:05.243Z,34.87
2023-06-10T06:02:05.291Z,34.90
2023-06-10T06:03:05.387Z,34.88
2023-06-10T06:04:05.318Z,34.95
2023-06-10T06:05:05.445Z,34.94
2023-06-10T06:06:05.402Z,35.00
2023-06-10T06:07:05.407Z,34.97
2023-06-10T06:08:05.436Z,34.91
2023-06-10T06:09:05.474Z,34.90
2023-06-10T06:10:05.497Z,35.02
2023-06-10T06:11:05.525Z,34.95
2023-06-10T06:12:05.560Z,34.95
2023-06-10T06:13:05.597Z,34.89
2023-06-10T06:14:05.628Z,34.90
2023-06-10T06:15:05.657Z,34.90
2023-06-10T06:16:05.712Z,34.96
2023-06-10T06:17:05.706Z,35.05
2023-06-10T06:18:05.918Z,35.10
2023-06-10T06:19:05.767Z,35.14
2023-06-10T06:20:05.795Z,35.15
2023-06-10T06:21:05.840Z,35.18
2023-06-10T06:22:05.865Z,35.15
2023-06-10T06:23:05.907Z,35.18
2023-06-10T06:24:06.143Z,35.16
2023-06-10T06:25:06.012Z,35.07
2023-06-10T06:26:08.758Z,35.14
2023-06-10T06:27:06.046Z,35.06
2023-06-10T06:28:06.065Z,35.20
2023-06-10T06:29:06.063Z,35.09
2023-06-10T06:30:06.082Z,35.16
2023-06-10T06:31:06.142Z,35.12
2023-06-10T06:32:06.139Z,35.14
2023-06-10T06:33:06.262Z,35.13
2023-06-10T06:34:06.185Z,35.11
2023-06-10T06:35:06.390Z,35.19
2023-06-10T06:36:06.291Z,35.20
2023-06-10T06:37:06.306Z,35.24
2023-06-10T06:38:06.320Z,35.22
2023-06-10T06:39:06.325Z,35.27
2023-06-10T06:40:06.322Z,35.36
2023-06-10T06:41:06.345Z,35.28
2023-06-10T06:42:06.419Z,35.38
2023-06-10T06:43:06.421Z,35.37
2023-06-10T06:44:06.406Z,35.38
2023-06-10T06:45:06.487Z,35.39
2023-06-10T06:46:06.452Z,35.46
2023-06-10T06:47:06.460Z,35.49
2023-06-10T06:48:06.641Z,35.52
2023-06-10T06:49:06.517Z,35.50
2023-06-10T06:50:06.578Z,35.49
2023-06-10T06:51:06.594Z,35.46
2023-06-10T06:52:06.591Z,35.48
2023-06-10T06:53:06.607Z,35.56
2023-06-10T06:54:06.648Z,35.58
2023-06-10T06:55:06.841Z,35.53
2023-06-10T06:56:06.682Z,35.46
2023-06-10T06:57:06.692Z,35.46
2023-06-10T06:58:06.712Z,35.44
2023-06-10T06:59:06.740Z,35.39
2023-06-10T07:00:06.752Z,35.42
2023-06-10T07:01:06.808Z,35.40
2023-06-10T07:02:06.805Z,35.40
2023-06-10T07:03:06.875Z,35.32
2023-06-10T07:04:06.869Z,35.37
2023-06-10T07:05:07.017Z,35.46
2023-06-10T07:06:06.866Z,35.40
2023-06-10T07:07:06.881Z,35.39
2023-06-10T07:08:06.944Z,35.38
2023-06-10T07:09:07.001Z,35.37
2023-06-10T07:10:07.085Z,35.26
2023-06-10T07:11:07.145Z,35.21
2023-06-10T07:12:07.224Z,35.12
2023-06-10T07:13:07.326Z,35.05
2023-06-10T07:14:07.384Z,35.02
2023-06-10T07:15:07.722Z,35.00
2023-06-10T07:16:07.551Z,35.00
2023-06-10T07:17:07.735Z,35.02
2023-06-10T07:18:07.765Z,34.96
2023-06-10T07:19:07.766Z,34.96
2023-06-10T07:20:07.925Z,34.87
2023-06-10T07:21:07.925Z,34.87
2023-06-10T07:22:07.964Z,34.79
2023-06-10T07:23:08.057Z,34.72
2023-06-10T07:24:08.172Z,34.67
2023-06-10T07:25:08.357Z,34.63
2023-06-10T07:26:08.246Z,34.60
2023-06-10T07:27:08.328Z,34.59
2023-06-10T07:28:08.397Z,34.47
2023-06-10T07:29:08.460Z,34.48
2023-06-10T07:30:08.530Z,34.46
2023-06-10T07:31:08.623Z,34.38
2023-06-10T07:32:08.672Z,34.44
2023-06-10T07:33:08.901Z,34.40
2023-06-10T07:34:08.780Z,34.41
2023-06-10T07:35:09.162Z,34.38
2023-06-10T07:36:08.889Z,34.38
2023-06-10T07:37:08.944Z,34.35
2023-06-10T07:38:09.011Z,34.29
2023-06-10T07:39:09.069Z,34.22
2023-06-10T07:40:09.126Z,34.17
2023-06-10T07:41:09.156Z,34.15
2023-06-10T07:42:09.206Z,34.14
2023-06-10T07:43:09.250Z,34.10
2023-06-10T07:44:09.305Z,34.07
2023-06-10T07:45:09.509Z,34.02
2023-06-10T07:46:09.412Z,33.98
2023-06-10T07:47:09.407Z,33.96
2023-06-10T07:48:09.475Z,34.00
2023-06-10T07:49:09.492Z,33.93
2023-06-10T07:50:09.549Z,33.93
2023-06-10T07:51:09.580Z,33.89
2023-06-10T07:52:09.645Z,33.84
2023-06-10T07:53:09.663Z,33.79
2023-06-10T07:54:09.691Z,33.75
2023-06-10T07:55:09.922Z,33.67
2023-06-10T07:56:09.704Z,33.61
2023-06-10T07:57:09.727Z,33.57
2023-06-10T07:58:09.724Z,33.57
2023-06-10T07:59:09.723Z,33.55
2023-06-10T08:00:09.727Z,33.51
2023-06-10T08:01:09.733Z,33.45
2023-06-10T08:02:09.736Z,33.42
2023-06-10T08:03:09.852Z,33.42
2023-06-10T08:04:09.879Z,33.42
2023-06-10T08:05:09.945Z,33.44
2023-06-10T08:06:09.766Z,33.36
2023-06-10T08:07:09.758Z,33.32
2023-06-10T08:08:09.795Z,33.36
2023-06-10T08:09:09.785Z,33.39
2023-06-10T08:10:09.822Z,33.44
2023-06-10T08:11:09.808Z,33.36
2023-06-10T08:12:09.791Z,33.36
2023-06-10T08:13:09.800Z,33.38
2023-06-10T08:14:09.786Z,33.42
2023-06-10T08:15:10.072Z,33.39
2023-06-10T08:16:09.814Z,33.32
2023-06-10T08:17:09.820Z,33.31
2023-06-10T08:18:09.987Z,33.28
2023-06-10T08:19:09.885Z,33.25
2023-06-10T08:20:09.923Z,33.24
2023-06-10T08:21:09.932Z,33.18
2023-06-10T08:22:09.961Z,33.20
2023-06-10T08:23:10.029Z,33.16
2023-06-10T08:24:10.054Z,33.17
2023-06-10T08:25:10.295Z,33.04
2023-06-10T08:26:10.048Z,33.08
2023-06-10T08:27:10.090Z,33.07
2023-06-10T08:28:10.119Z,33.02
2023-06-10T08:29:10.133Z,33.00
2023-06-10T08:30:10.140Z,32.99
2023-06-10T08:31:10.184Z,32.98
2023-06-10T08:32:10.237Z,32.99
2023-06-10T08:33:10.304Z,32.98
2023-06-10T08:34:10.242Z,33.01
2023-06-10T08:35:10.556Z,33.02
2023-06-10T08:36:10.256Z,33.01
2023-06-10T08:37:10.281Z,32.92
2023-06-10T08:38:10.296Z,32.94
2023-06-10T08:39:10.257Z,32.94
2023-06-10T08:40:10.254Z,32.90
2023-06-10T08:41:10.266Z,32.88
2023-06-10T08:42:10.268Z,32.89
2023-06-10T08:43:10.262Z,32.91
2023-06-10T08:44:10.282Z,32.90
2023-06-10T08:45:10.566Z,32.93
2023-06-10T08:46:10.278Z,32.86
2023-06-10T08:47:10.312Z,32.94
2023-06-10T08:48:10.462Z,32.96
2023-06-10T08:49:10.353Z,32.99
2023-06-10T08:50:12.609Z,32.97
2023-06-10T08:51:10.333Z,33.04
2023-06-10T08:52:10.319Z,33.00
2023-06-10T08:53:10.346Z,33.00
2023-06-10T08:54:10.312Z,33.05
2023-06-10T08:55:10.440Z,33.13
2023-06-10T08:56:10.339Z,33.02
2023-06-10T08:57:10.363Z,33.02
2023-06-10T08:58:10.388Z,32.96
2023-06-10T08:59:10.393Z,33.04
2023-06-10T09:00:10.545Z,32.98
2023-06-10T09:01:10.377Z,32.98
2023-06-10T09:02:10.384Z,32.88
2023-06-10T09:03:10.413Z,32.91
2023-06-10T09:04:10.348Z,32.88
2023-06-10T09:05:10.347Z,32.86
2023-06-10T09:06:10.360Z,32.79
2023-06-10T09:07:10.349Z,32.78
2023-06-10T09:08:10.428Z,32.82
2023-06-10T09:09:10.317Z,32.78
2023-06-10T09:10:10.556Z,32.74
2023-06-10T09:11:10.318Z,32.71
2023-06-10T09:12:10.343Z,32.71
2023-06-10T09:13:10.403Z,32.68
2023-06-10T09:14:10.393Z,32.67
2023-06-10T09:15:10.386Z,32.64
2023-06-10T09:16:10.407Z,32.68
2023-06-10T09:17:10.398Z,32.63
2023-06-10T09:18:10.439Z,32.59
2023-06-10T09:19:10.387Z,32.58
2023-06-10T09:20:10.907Z,32.58
2023-06-10T09:21:10.389Z,32.58
2023-06-10T09:22:10.403Z,32.51
2023-06-10T09:23:10.303Z,32.54
2023-06-10T09:24:10.354Z,32.59
2023-06-10T09:25:10.493Z,32.53
2023-06-10T09:26:10.753Z,32.53
2023-06-10T09:27:10.262Z,32.53
2023-06-10T09:28:10.266Z,32.49
2023-06-10T09:29:10.256Z,32.49
2023-06-10T09:30:10.534Z,32.52
2023-06-10T09:31:10.403Z,32.48
2023-06-10T09:32:10.781Z,32.44
2023-06-10T09:33:10.350Z,32.44
2023-06-10T09:34:10.212Z,32.44
2023-06-10T09:35:10.208Z,32.44
2023-06-10T09:36:10.201Z,32.41
2023-06-10T09:37:10.223Z,32.37
2023-06-10T09:38:10.883Z,32.42
2023-06-10T09:39:10.337Z,32.44
2023-06-10T09:40:10.638Z,32.36
2023-06-10T09:41:10.470Z,32.34
2023-06-10T09:42:10.537Z,32.38
2023-06-10T09:43:10.532Z,32.40
2023-06-10T09:44:10.533Z,32.38
2023-06-10T09:45:10.530Z,32.44
2023-06-10T09:46:10.570Z,32.39
2023-06-10T09:47:10.513Z,32.42
2023-06-10T09:48:10.566Z,32.44
2023-06-10T09:49:10.512Z,32.44
2023-06-10T09:50:11.493Z,32.44
2023-06-10T09:51:10.595Z,32.42
2023-06-10T09:52:10.527Z,32.45
2023-06-10T09:53:10.505Z,32.44
2023-06-10T09:54:10.500Z,32.46
2023-06-10T09:55:10.543Z,32.48
2023-06-10T09:56:11.145Z,32.49
2023-06-10T09:57:10.688Z,32.49
2023-06-10T09:58:10.639Z,32.49
2023-06-10T09:59:10.669Z,32.51
2023-06-10T10:00:11.093Z,32.52
2023-06-10T10:01:10.804Z,32.50
2023-06-10T10:02:11.409Z,32.53
2023-06-10T10:03:11.016Z,32.53
2023-06-10T10:04:10.942Z,32.51
2023-06-10T10:05:11.220Z,32.53
2023-06-10T10:06:11.020Z,32.52
2023-06-10T10:07:10.993Z,32.56
2023-06-10T10:08:11.034Z,32.60
2023-06-10T10:09:11.062Z,32.53
2023-06-10T10:10:11.002Z,32.64
2023-06-10T10:11:11.012Z,32.56
2023-06-10T10:12:10.972Z,32.60
2023-06-10T10:13:10.971Z,32.59
2023-06-10T10:14:11.053Z,32.59
2023-06-10T10:15:11.193Z,32.63
2023-06-10T10:16:11.010Z,32.62
2023-06-10T10:17:11.165Z,32.59
2023-06-10T10:18:11.200Z,32.57
2023-06-10T10:19:11.107Z,32.60
2023-06-10T10:20:11.155Z,32.59
2023-06-10T10:21:11.204Z,32.57
2023-06-10T10:22:11.232Z,32.60
2023-06-10T10:23:11.229Z,32.58
2023-06-10T10:24:11.381Z,32.63
2023-06-10T10:25:11.604Z,32.56
2023-06-10T10:26:11.272Z,32.62
2023-06-10T10:27:11.288Z,32.62
2023-06-10T10:28:11.320Z,32.63
2023-06-10T10:29:11.269Z,32.62
2023-06-10T10:30:11.309Z,32.63
2023-06-10T10:31:11.309Z,32.61
2023-06-10T10:32:11.359Z,32.60
2023-06-10T10:33:11.476Z,32.63
2023-06-10T10:34:11.341Z,32.60
2023-06-10T10:35:11.575Z,32.61
2023-06-10T10:36:11.248Z,32.58
2023-06-10T10:37:11.353Z,32.62
2023-06-10T10:38:11.358Z,32.58
2023-06-10T10:39:11.339Z,32.59
2023-06-10T10:40:11.330Z,32.59
2023-06-10T10:41:11.325Z,32.61
2023-06-10T10:42:11.343Z,32.63
2023-06-10T10:43:11.340Z,32.59
2023-06-10T10:44:11.325Z,32.62
2023-06-10T10:45:11.615Z,32.62
2023-06-10T10:46:11.405Z,32.55
2023-06-10T10:47:11.309Z,32.57
2023-06-10T10:48:11.354Z,32.58
2023-06-10T10:49:11.415Z,32.56
2023-06-10T10:50:13.917Z,32.54
2023-06-10T10:51:11.449Z,32.53
2023-06-10T10:52:11.459Z,32.48
2023-06-10T10:53:11.465Z,32.50
2023-06-10T10:54:11.433Z,32.45
2023-06-10T10:55:11.556Z,32.48
2023-06-10T10:56:13.706Z,32.42
2023-06-10T10:57:11.477Z,32.44
2023-06-10T10:58:11.423Z,32.44
2023-06-10T10:59:11.436Z,32.44
2023-06-10T11:00:11.490Z,32.38
2023-06-10T11:01:11.448Z,32.38
2023-06-10T11:02:11.458Z,32.36
2023-06-10T11:03:12.241Z,32.32
2023-06-10T11:04:11.720Z,32.36
2023-06-10T11:05:11.993Z,32.33
2023-06-10T11:06:11.412Z,32.32
2023-06-10T11:07:11.430Z,32.29
2023-06-10T11:08:11.381Z,32.29
2023-06-10T11:09:11.391Z,32.28
2023-06-10T11:10:11.379Z,32.24
2023-06-10T11:11:11.367Z,32.20
2023-06-10T11:12:11.358Z,32.20
2023-06-10T11:13:11.356Z,32.18
2023-06-10T11:14:11.354Z,32.21
2023-06-10T11:15:11.605Z,32.24
2023-06-10T11:16:11.358Z,32.16
2023-06-10T11:17:11.353Z,32.17
2023-06-10T11:18:11.323Z,32.16
2023-06-10T11:19:11.300Z,32.16
2023-06-10T11:20:11.278Z,32.12
2023-06-10T11:21:11.285Z,32.12
2023-06-10T11:22:11.296Z,32.14
2023-06-10T11:23:11.255Z,32.14
2023-06-10T11:24:11.407Z,32.14
2023-06-10T11:25:11.496Z,32.13
2023-06-10T11:26:11.361Z,32.06
2023-06-10T11:27:11.402Z,32.04
2023-06-10T11:28:11.498Z,32.07
2023-06-10T11:29:11.486Z,32.06
2023-06-10T11:30:11.517Z,32.10
2023-06-10T11:31:11.664Z,32.01
2023-06-10T11:32:11.664Z,32.03
2023-06-10T11:33:11.755Z,32.03
2023-06-10T11:34:11.703Z,31.98
2023-06-10T11:35:12.179Z,31.99
2023-06-10T11:36:11.746Z,31.97
2023-06-10T11:37:11.775Z,31.99
2023-06-10T11:38:11.835Z,31.95
2023-06-10T11:39:11.854Z,31.99
2023-06-10T11:40:11.926Z,31.99
2023-06-10T11:41:11.917Z,31.99
2023-06-10T11:42:11.949Z,31.99
2023-06-10T11:43:11.993Z,32.04
2023-06-10T11:44:12.057Z,32.08
2023-06-10T11:45:12.314Z,32.09
2023-06-10T11:46:12.143Z,32.06
2023-06-10T11:47:12.169Z,32.06
2023-06-10T11:48:12.210Z,32.03
2023-06-10T11:49:12.232Z,32.06
2023-06-10T11:50:12.278Z,32.06
2023-06-10T11:51:12.312Z,32.07
2023-06-10T11:52:12.364Z,32.05
2023-06-10T11:53:12.390Z,32.04
2023-06-10T11:54:12.429Z,32.07
2023-06-10T11:55:12.788Z,32.04
2023-06-10T11:56:12.426Z,32.02
2023-06-10T11:57:12.394Z,32.07
2023-06-10T11:58:12.386Z,32.01
2023-06-10T11:59:12.381Z,32.03
2023-06-10T12:00:12.344Z,31.98
2023-06-10T12:01:13.310Z,32.05
2023-06-10T12:02:12.428Z,32.01
2023-06-10T12:03:12.394Z,32.05
2023-06-10T12:04:12.333Z,32.08
2023-06-10T12:05:12.659Z,32.02
2023-06-10T12:06:12.271Z,32.07
2023-06-10T12:07:12.266Z,32.05
2023-06-10T12:08:12.285Z,32.04
2023-06-10T12:09:22.760Z,32.07
2023-06-10T12:10:26.840Z,32.05
2023-06-10T12:11:13.196Z,32.08
2023-06-10T12:12:12.181Z,32.09
2023-06-10T12:13:12.157Z,32.07
2023-06-10T12:14:12.148Z,32.04
2023-06-10T12:15:12.442Z,32.03
2023-06-10T12:16:12.174Z,31.94
2023-06-10T12:17:12.105Z,31.96
2023-06-10T12:18:12.115Z,32.00
2023-06-10T12:19:12.078Z,32.00
2023-06-10T12:20:12.058Z,31.99
2023-06-10T12:21:12.028Z,31.96
2023-06-10T12:22:12.008Z,31.97
2023-06-10T12:23:12.000Z,31.95
2023-06-10T12:24:12.050Z,32.01
2023-06-10T12:25:12.673Z,31.93
2023-06-10T12:26:11.958Z,31.95
2023-06-10T12:27:11.936Z,31.92
2023-06-10T12:28:11.934Z,31.98
2023-06-10T12:29:11.902Z,31.92
2023-06-10T12:30:11.884Z,31.97
2023-06-10T12:31:11.845Z,31.91
2023-06-10T12:32:11.925Z,31.97
2023-06-10T12:33:11.932Z,31.95
2023-06-10T12:34:11.806Z,31.90
2023-06-10T12:35:12.145Z,31.90
2023-06-10T12:36:11.760Z,31.91
2023-06-10T12:37:11.730Z,31.94
2023-06-10T12:38:11.725Z,31.92
2023-06-10T12:39:11.729Z,31.97
2023-06-10T12:40:11.762Z,31.91
2023-06-10T12:41:11.746Z,31.90
2023-06-10T12:42:11.753Z,31.90
2023-06-10T12:43:11.756Z,31.94
2023-06-10T12:44:11.761Z,31.93
2023-06-10T12:45:12.010Z,31.90
2023-06-10T12:46:11.796Z,31.90
2023-06-10T12:47:11.776Z,31.92
2023-06-10T12:48:11.857Z,31.87
2023-06-10T12:49:11.770Z,31.90
2023-06-10T12:50:11.786Z,31.88
2023-06-10T12:51:11.806Z,31.88
2023-06-10T12:52:11.815Z,31.92
2023-06-10T12:53:11.828Z,31.86